Last 24 Hour KALB Observations

Last 24 hours of surface weather observations from the Albany County Airport. Observations taken by the National Weather Service.


		
KALB 212351Z 17009KT 10SM BKN050 BKN110 BKN220 BKN260 18/16 A3017 RMK AO2
 RAB31E41 SLP216 P0000 60000 T01830161 10211 20183 53013=
KALB 220043Z 26004KT 10SM -DZ BKN022 OVC050 18/16 A3020 RMK AO2 DZB43 P0000
 T01830156=
KALB 220043Z 26004KT 10SM -DZ BKN022 OVC050 18/16 A3020=
KALB 220051Z 26004KT 10SM -DZ OVC021 18/16 A3020 RMK AO2 DZB43 SLP228 P0000
 T01830156=
KALB 220148Z 25012G19KT 10SM SCT018 BKN039 OVC047 17/13 A3022 RMK AO2
 DZE0059B28E48 P0000=
KALB 220148Z 25012G19KT 10SM SCT018 BKN039 OVC047 17/13 A3022=
KALB 220151Z 26014G19KT 10SM SCT018 BKN039 BKN047 BKN260 17/13 A3022 RMK AO2
 DZE0059B28E48 SLP233 P0000 T01670133=
KALB 220251Z 28003KT 10SM FEW018 BKN030 OVC050 16/12 A3024 RMK AO2 SLP238
 BINOVC 60000 T01560122 51023=
KALB 220307Z 30004KT 10SM FEW015 OVC028 16/12 A3024 RMK AO2 T01560122=
KALB 220307Z 30004KT 10SM FEW015 OVC028 16/12 A3024=
KALB 220351Z 27009KT 10SM OVC028 16/12 A3025 RMK AO2 SLP242 T01560117=
KALB 220451Z 29006KT 10SM OVC028 15/12 A3025 RMK AO2 SLP244 T01500117 402110078=
KALB 220551Z 00000KT 10SM BKN028 BKN045 14/11 A3025 RMK AO2 SLP242 60000
 T01440111 10183 20139 50004=
KALB 220651Z 00000KT 10SM OVC027 14/12 A3025 RMK AO2 SLP244 T01440117=
KALB 220728Z 01003KT 10SM OVC030 14/11 A3026 RMK AO2 T01390111=
KALB 220728Z 01003KT 10SM OVC030 14/11 A3026=
KALB 220751Z 00000KT 10SM OVC028 14/11 A3026 RMK AO2 SLP246 T01390111=
KALB 220851Z 00000KT 10SM BKN026 OVC037 14/11 A3026 RMK AO2 SLP248 T01390111
 52005=
KALB 220918Z 00000KT 10SM SCT027 OVC037 14/11 A3027 RMK AO2 T01390106=
KALB 220918Z 00000KT 10SM SCT027 OVC037 14/11 A3027=
KALB 220951Z 00000KT 10SM FEW027 SCT038 SCT250 12/10 A3027 RMK AO2 SLP250
 T01220100=
KALB 221051Z 00000KT 10SM FEW038 SCT250 09/09 A3027 RMK AO2 SLP252 T00940094=
KALB 221151Z 00000KT 10SM BKN055 BKN250 11/11 A3028 RMK AO2 SLP253 T01060106
 10144 20089 51004=
KALB 221251Z 00000KT 10SM FEW060 SCT250 13/11 A3028 RMK AO2 SLP255 T01280111=
KALB 221351Z 34005KT 10SM BKN047 BKN110 BKN250 15/11 A3029 RMK AO2 SLP258
 T01500106=
KALB 221451Z VRB03KT 10SM SCT045 SCT120 SCT250 16/11 A3028 RMK AO2 SLP255
 T01610111 50003=
KALB 221551Z 00000KT 10SM SCT055 SCT250 17/11 A3028 RMK AO2 SLP254 T01720111=
KALB 221651Z 00000KT 10SM FEW035 SCT043 SCT250 18/11 A3026 RMK AO2 SLP247
 T01780111=
KALB 221751Z 00000KT 10SM BKN043 BKN120 18/12 A3024 RMK AO2 SLP239 T01830117
 10183 20106 58015=
KALB 221851Z 29004KT 10SM BKN045 BKN110 19/12 A3022 RMK AO2 SLP234 T01940122=
KALB 221951Z 01003KT 10SM FEW040 BKN049 BKN110 19/13 A3022 RMK AO2 SLP231
 T01940128=
KALB 222051Z 02004KT 10SM FEW045 SCT060 SCT110 19/12 A3021 RMK AO2 SLP231
 SCT110 V BKN T01890122 56008=
KALB 222151Z 35003KT 10SM FEW045 FEW060 BKN110 BKN260 18/12 A3021 RMK AO2
 SLP232 BKN110 V SCT T01780122=
KALB 222251Z 35003KT 10SM FEW045 SCT060 BKN110 BKN260 16/12 A3022 RMK AO2
 SLP235 BKN110 V SCT T01610122=